METAR Data
IDs: Format: Raw Decoded Include TAF

Data at: 1721 UTC 16 Oct 2021

KSPS 161652Z 32007KT 10SM CLR 19/04 A3043 RMK AO2 SLP299 T01890039
KSPS 161552Z 27008KT 10SM CLR 16/06 A3043 RMK AO2 SLP301 T01610056
KSPS 161452Z 31008KT 9SM CLR 13/06 A3042 RMK AO2 SLP299 T01280056 53021
KSPS 161352Z 31008KT 8SM CLR 09/05 A3040 RMK AO2 SLP293 T00940050
KSPS 161252Z 32011KT 8SM CLR 08/04 A3038 RMK AO2 SLP285 T00780039
KSPS 161152Z 31006KT 7SM CLR 07/04 A3036 RMK AO2 SLP278 T00720039 10100 20072 53010
KSPS 161052Z 32008KT 9SM CLR 08/04 A3035 RMK AO2 SLP272 T00780044
KSPS 160952Z 32006KT 10SM CLR 08/04 A3034 RMK AO2 SLP267 T00830039
KSPS 160852Z 34005KT 10SM CLR 09/04 A3033 RMK AO2 SLP264 T00940039 51002
KSPS 160752Z 33005KT 10SM CLR 09/04 A3033 RMK AO2 SLP264 T00890039
KSPS 160652Z 33006KT 10SM CLR 10/04 A3033 RMK AO2 SLP264 T01000039
KSPS 160552Z 33006KT 10SM CLR 10/05 A3032 RMK AO2 SLP263 T01000050 10167 20100 402280100 51019
KSPS 160452Z 34005KT 10SM CLR 11/05 A3031 RMK AO2 SLP258 T01060050
KSPS 160352Z 33008KT 10SM CLR 11/04 A3029 RMK AO2 SLP253 T01110044
KSPS 160252Z 36007KT 10SM CLR 11/05 A3027 RMK AO2 SLP245 T01110050 53023
KSPS 160152Z 33008KT 10SM CLR 13/05 A3023 RMK AO2 SLP233 T01330050
KSPS 160052Z 34007KT 10SM CLR 13/05 A3022 RMK AO2 SLP228 T01330050
KSPS 152352Z 36008KT 10SM CLR 17/05 A3020 RMK AO2 SLP218 60000 T01670050 10228 20167 53013
KSPS 152252Z 01017KT 10SM CLR 20/04 A3018 RMK AO2 SLP213 T02000039
KSPS 152152Z 36019KT 10SM FEW060 22/04 A3017 RMK AO2 SLP207 T02170044
KSPS 152052Z 35019G23KT 10SM FEW060 22/06 A3016 RMK AO2 PK WND 01027/2030 SLP203 60000 T02220061 53004
KSPS 151952Z 01017G28KT 10SM CLR 22/06 A3014 RMK AO2 PK WND 01028/1947 RAB18E26 SLP198 P0000 T02170056
KSPS 151852Z 01020G26KT 10SM CLR 22/06 A3014 RMK AO2 PK WND 01030/1753 SLP198 T02170061
KSPS 151752Z 01021G29KT 10SM CLR 21/07 A3015 RMK AO2 PK WND 36029/1723 SLP199 T02110067 10211 20144 51024
KSPS 151652Z 35020G29KT 10SM CLR 19/07 A3013 RMK AO2 PK WND 36029/1643 SLP194 T01890072
KSPS 151552Z 35021G26KT 10SM CLR 18/08 A3011 RMK AO2 PK WND 35026/1550 SLP187 T01780078 $
KSPS 151505Z 35018G25KT 10SM SCT023 17/08 A3008 RMK AO2 T01670083 $
KSPS 151452Z 34016KT 10SM BKN023 16/09 A3007 RMK AO2 SLP176 T01560089 51031 $
KSPS 151448Z 35018KT 10SM BKN023 16/09 A3007 RMK AO2 $
KSPS 151431Z 34018KT 10SM SCT025 16/09 A3006 RMK AO2 T01560089 $
KSPS 151352Z 33014KT 10SM BKN025 14/10 A3003 RMK AO2 SLP161 T01440100 $
KSPS 151323Z 35013KT 10SM OVC016 14/11 A3001 RMK AO2 T01440106 $
KSPS 151252Z 35016G27KT 10SM OVC012 15/12 A2998 RMK AO2 PK WND 35028/1200 SLP144 T01500122 $
KSPS 151246Z 36017G27KT 10SM OVC012 14/12 A2997 RMK AO2 PK WND 35028/1200 $
KSPS 151234Z 35018KT 10SM OVC011 16/13 A2996 RMK AO2 PK WND 35028/1200 T01560133 $
KSPS 151219Z 35019KT 10SM OVC009 16/14 A2995 RMK AO2 PK WND 35028/1200 T01560144 $
KSPS 151152Z 01012KT 10SM OVC006 18/18 A2992 RMK AO2 CIG 005V011 SLP122 T01830178 10206 20156 53032 $
KSPS 151052Z 35010KT 10SM OVC006 16/16 A2987 RMK AO2 SLP105 T01610156 $
KSPS 151018Z 36012KT 10SM BKN007 OVC015 17/16 A2986 RMK AO2 T01670156 $
KSPS 150952Z 34011KT 10SM FEW005 SCT010 OVC014 17/16 A2985 RMK AO2 SLP097 T01670161
KSPS 150945Z 34011KT 10SM SCT003 OVC012 17/16 A2985 RMK AO2 T01670161
KSPS 150920Z 31011KT 5SM BR BKN002 17/17 A2984 RMK AO2 T01720172
KSPS 150912Z 30008KT 6SM BR SCT002 17/17 A2984 RMK AO2 T01720172
KSPS 150859Z 00000KT 9SM CLR 18/18 A2983 RMK AO2 T01780178
KSPS 150852Z 00000KT 2SM BR CLR 18/18 A2983 RMK AO2 SLP088 T01780178 51008
KSPS 150843Z 33004KT 1 3/4SM BR CLR 18/18 A2983 RMK AO2 T01780178
KSPS 150752Z 28005KT 10SM CLR 19/18 A2982 RMK AO2 SLP084 T01890183
KSPS 150652Z 28005KT 10SM CLR 21/19 A2981 RMK AO2 SLP083 T02060194
KSPS 150552Z 19008KT 10SM CLR 21/19 A2980 RMK AO2 SLP079 T02060194 10250 20206 402890156 50001